createdAt,value
2023-06-23T00:02:02.795Z,100471.66
2023-06-23T00:04:31.714Z,100475.25
2023-06-23T00:07:00.451Z,100489.81
2023-06-23T00:09:29.128Z,100492.25
2023-06-23T00:11:58.344Z,100495.81
2023-06-23T00:14:26.193Z,100497.72
2023-06-23T00:16:53.996Z,100502.94
2023-06-23T00:19:21.938Z,100507.88
2023-06-23T00:21:49.697Z,100506.50
2023-06-23T00:24:18.095Z,100517.22
2023-06-23T00:26:46.226Z,100516.41
2023-06-23T00:29:15.264Z,100527.41
2023-06-23T00:31:43.216Z,100517.75
2023-06-23T00:34:11.280Z,100519.41
2023-06-23T00:36:39.402Z,100511.13
2023-06-23T00:39:07.365Z,100516.09
2023-06-23T00:41:35.411Z,100510.31
2023-06-23T00:44:03.175Z,100510.31
2023-06-23T00:46:35.538Z,100510.56
2023-06-23T00:49:03.946Z,100506.13
2023-06-23T00:51:33.021Z,100512.16
2023-06-23T00:54:01.882Z,100506.97
2023-06-23T00:56:31.776Z,100517.16
2023-06-23T00:59:00.081Z,100524.84
2023-06-23T01:01:28.326Z,100521.78
2023-06-23T01:04:00.361Z,100535.50
2023-06-23T01:06:38.411Z,100530.03
2023-06-23T01:09:15.195Z,100529.50
2023-06-23T01:11:51.027Z,100527.06
2023-06-23T01:14:25.905Z,100527.56
2023-06-23T01:17:00.451Z,100525.09
2023-06-23T01:19:54.963Z,100528.88
2023-06-23T01:22:31.839Z,100535.75
2023-06-23T01:25:13.410Z,100543.13
2023-06-23T01:27:54.718Z,100554.97
2023-06-23T01:30:27.629Z,100557.72
2023-06-23T01:33:09.134Z,100558.25
2023-06-23T01:35:44.146Z,100546.16
2023-06-23T01:38:19.491Z,100570.91
2023-06-23T01:40:52.686Z,100562.38
2023-06-23T01:43:30.330Z,100558.22
2023-06-23T01:46:04.688Z,100559.25
2023-06-23T01:48:37.480Z,100562.81
2023-06-23T01:51:07.345Z,100554.03
2023-06-23T01:53:35.462Z,100551.53
2023-06-23T01:56:07.560Z,100554.78
2023-06-23T01:58:39.365Z,100547.09
2023-06-23T02:01:09.220Z,100552.84
2023-06-23T02:03:38.136Z,100552.53
2023-06-23T02:06:07.797Z,100544.88
2023-06-23T02:08:38.405Z,100544.91
2023-06-23T02:11:08.090Z,100548.78
2023-06-23T02:13:40.707Z,100555.91
2023-06-23T02:16:10.834Z,100551.56
2023-06-23T02:18:42.248Z,100554.63
2023-06-23T02:21:12.493Z,100556.59
2023-06-23T02:23:44.963Z,100553.34
2023-06-23T02:26:13.183Z,100558.84
2023-06-23T02:28:50.987Z,100550.56
2023-06-23T02:31:22.392Z,100563.97
2023-06-23T02:33:50.534Z,100553.75
2023-06-23T02:36:22.413Z,100553.75
2023-06-23T02:38:51.099Z,100560.31
2023-06-23T02:41:21.510Z,100560.91
2023-06-23T02:43:52.797Z,100558.94
2023-06-23T02:46:25.492Z,100560.81
2023-06-23T02:48:57.960Z,100558.53
2023-06-23T02:51:28.869Z,100549.25
2023-06-23T02:54:03.496Z,100553.66
2023-06-23T02:56:32.759Z,100548.75
2023-06-23T02:59:04.677Z,100547.41
2023-06-23T03:01:41.304Z,100543.81
2023-06-23T03:04:09.210Z,100544.94
2023-06-23T03:06:38.006Z,100549.91
2023-06-23T03:09:07.283Z,100549.28
2023-06-23T03:11:36.169Z,100552.31
2023-06-23T03:14:04.676Z,100552.53
2023-06-23T03:16:41.082Z,100549.44
2023-06-23T03:19:19.871Z,100546.97
2023-06-23T03:21:52.903Z,100550.25
2023-06-23T03:24:23.723Z,100551.34
2023-06-23T03:26:58.679Z,100552.47
2023-06-23T03:29:29.380Z,100551.34
2023-06-23T03:32:03.479Z,100555.44
2023-06-23T03:34:43.034Z,100557.41
2023-06-23T03:37:15.092Z,100557.41
2023-06-23T03:39:45.943Z,100557.38
2023-06-23T03:42:14.016Z,100562.84
2023-06-23T03:44:49.332Z,100562.81
2023-06-23T03:47:23.122Z,100570.78
2023-06-23T03:49:55.005Z,100581.00
2023-06-23T03:52:25.445Z,100577.94
2023-06-23T03:54:56.776Z,100578.72
2023-06-23T03:57:30.397Z,100589.41
2023-06-23T04:00:00.094Z,100598.72
2023-06-23T04:02:31.471Z,100591.84
2023-06-23T04:05:03.230Z,100595.97
2023-06-23T04:07:33.231Z,100599.50
2023-06-23T04:10:06.447Z,100603.63
2023-06-23T04:12:36.308Z,100610.78
2023-06-23T04:15:07.790Z,100605.84
2023-06-23T04:17:42.365Z,100608.56
2023-06-23T04:20:14.435Z,100616.28
2023-06-23T04:22:45.627Z,100623.69
2023-06-23T04:25:18.759Z,100623.22
2023-06-23T04:27:49.632Z,100625.19
2023-06-23T04:30:20.013Z,100635.13
2023-06-23T04:32:49.275Z,100633.00
2023-06-23T04:35:17.317Z,100641.53
2023-06-23T04:37:49.472Z,100640.88
2023-06-23T04:40:27.016Z,100649.34
2023-06-23T04:43:01.490Z,100655.75
2023-06-23T04:45:34.655Z,100670.19
2023-06-23T04:48:07.098Z,100667.72
2023-06-23T04:50:37.283Z,100665.66
2023-06-23T04:53:09.305Z,100669.94
2023-06-23T04:55:40.651Z,100675.06
2023-06-23T04:58:11.392Z,100682.03
2023-06-23T05:00:41.005Z,100682.53
2023-06-23T05:03:11.835Z,100683.59
2023-06-23T05:05:42.510Z,100681.91
2023-06-23T05:08:13.139Z,100689.06
2023-06-23T05:10:41.830Z,100692.09
2023-06-23T05:13:13.472Z,100701.94
2023-06-23T05:15:41.333Z,100712.56
2023-06-23T05:18:11.709Z,100716.22
2023-06-23T05:20:41.195Z,100720.03
2023-06-23T05:23:11.091Z,100729.34
2023-06-23T05:25:40.206Z,100736.97
2023-06-23T05:28:09.847Z,100736.66
2023-06-23T05:30:38.963Z,100749.09
2023-06-23T05:33:09.449Z,100757.66
2023-06-23T05:35:41.788Z,100764.22
2023-06-23T05:38:10.928Z,100770.81
2023-06-23T05:40:38.941Z,100776.59
2023-06-23T05:43:08.172Z,100771.47
2023-06-23T05:45:37.639Z,100779.69
2023-06-23T05:48:15.402Z,100792.13
2023-06-23T05:50:47.589Z,100793.22
2023-06-23T05:53:25.011Z,100808.75
2023-06-23T05:56:01.353Z,100811.03
2023-06-23T05:58:33.399Z,100812.50
2023-06-23T06:01:06.144Z,100821.03
2023-06-23T06:03:39.149Z,100826.50
2023-06-23T06:06:09.721Z,100837.47
2023-06-23T06:08:40.350Z,100840.94
2023-06-23T06:11:10.546Z,100845.44
2023-06-23T06:13:43.164Z,100860.56
2023-06-23T06:16:12.174Z,100856.53
2023-06-23T06:18:42.133Z,100870.97
2023-06-23T06:21:13.929Z,100881.69
2023-06-23T06:23:43.585Z,100901.78
2023-06-23T06:26:12.682Z,100907.28
2023-06-23T06:28:44.550Z,100915.47
2023-06-23T06:31:13.502Z,100934.31
2023-06-23T06:33:43.419Z,100949.53
2023-06-23T06:36:14.103Z,100961.06
2023-06-23T06:38:43.247Z,100961.88
2023-06-23T06:41:11.596Z,100972.72
2023-06-23T06:43:39.883Z,100976.53
2023-06-23T06:46:10.837Z,100984.13
2023-06-23T06:48:41.260Z,100999.00
2023-06-23T06:51:10.344Z,100999.59
2023-06-23T06:53:39.556Z,101011.13
2023-06-23T06:56:08.307Z,101014.34
2023-06-23T06:58:37.191Z,101015.28
2023-06-23T07:01:05.670Z,101029.72
2023-06-23T07:03:34.679Z,101038.63
2023-06-23T07:06:02.593Z,101050.91
2023-06-23T07:08:30.621Z,101056.38
2023-06-23T07:10:59.767Z,101063.53
2023-06-23T07:13:27.619Z,101065.69
2023-06-23T07:15:55.799Z,101070.88
2023-06-23T07:18:24.860Z,101074.69
2023-06-23T07:20:53.009Z,101079.00
2023-06-23T07:23:21.072Z,101087.91
2023-06-23T07:25:48.946Z,101092.22
2023-06-23T07:28:18.295Z,101095.31
2023-06-23T07:30:46.053Z,101109.38
2023-06-23T07:33:13.962Z,101109.94
2023-06-23T07:35:42.024Z,101118.41
2023-06-23T07:38:09.897Z,101122.19
2023-06-23T07:40:37.805Z,101130.19
2023-06-23T07:43:05.874Z,101128.44
2023-06-23T07:45:35.051Z,101138.31
2023-06-23T07:48:02.854Z,101137.59
2023-06-23T07:50:30.976Z,101138.66
2023-06-23T07:52:58.970Z,101141.06
2023-06-23T07:55:26.780Z,101148.66
2023-06-23T07:57:54.753Z,101149.28
2023-06-23T08:00:24.704Z,101150.00
2023-06-23T08:02:53.993Z,101151.19
2023-06-23T08:05:22.808Z,101158.34
2023-06-23T08:07:50.905Z,101162.97
2023-06-23T08:10:18.825Z,101168.91
2023-06-23T08:12:46.718Z,101180.25
2023-06-23T08:15:14.564Z,101192.97
2023-06-23T08:17:42.510Z,101189.25
2023-06-23T08:20:13.234Z,101200.09
2023-06-23T08:22:41.702Z,101203.94
2023-06-23T08:25:10.048Z,101212.44
2023-06-23T08:27:38.141Z,101217.91
2023-06-23T08:30:08.087Z,101238.75
2023-06-23T08:32:35.920Z,101234.03
2023-06-23T08:35:03.907Z,101242.97
2023-06-23T08:37:38.204Z,101245.97
2023-06-23T08:40:07.189Z,101248.31
2023-06-23T08:42:35.463Z,101253.56
2023-06-23T08:45:05.025Z,101257.75
2023-06-23T08:47:34.810Z,101262.47
2023-06-23T08:50:03.067Z,101268.34
2023-06-23T08:52:31.124Z,101273.19
2023-06-23T08:55:00.409Z,101278.13
2023-06-23T08:57:28.229Z,101273.53
2023-06-23T08:59:56.360Z,101280.69
2023-06-23T09:02:24.781Z,101273.81
2023-06-23T09:04:52.727Z,101281.78
2023-06-23T09:07:20.829Z,101283.91
2023-06-23T09:09:49.061Z,101294.28
2023-06-23T09:12:21.686Z,101299.13
2023-06-23T09:14:50.443Z,101295.34
2023-06-23T09:17:19.155Z,101308.06
2023-06-23T09:19:50.208Z,101309.25
2023-06-23T09:22:20.618Z,101318.06
2023-06-23T09:24:49.204Z,101317.00
2023-06-23T09:27:18.551Z,101321.41
2023-06-23T09:30:01.506Z,101318.44
2023-06-23T09:32:34.741Z,101325.38
2023-06-23T09:35:04.437Z,101330.84
2023-06-23T09:37:37.315Z,101323.69
2023-06-23T09:40:07.794Z,101326.66
2023-06-23T09:42:39.522Z,101340.59
2023-06-23T09:45:18.850Z,101349.19
2023-06-23T09:47:49.973Z,101341.94
2023-06-23T09:50:19.043Z,101344.69
2023-06-23T09:52:46.829Z,101350.31
2023-06-23T09:55:41.394Z,101352.81
2023-06-23T09:58:11.909Z,101349.38
2023-06-23T10:00:39.865Z,101351.06
2023-06-23T10:03:07.804Z,101349.78
2023-06-23T10:05:36.804Z,101353.41
2023-06-23T10:08:09.844Z,101361.19
2023-06-23T10:10:47.180Z,101356.72
2023-06-23T10:13:17.026Z,101364.91
2023-06-23T10:15:44.854Z,101367.44
2023-06-23T10:18:13.429Z,101370.16
2023-06-23T10:20:42.469Z,101378.00
2023-06-23T10:23:10.591Z,101370.41
2023-06-23T10:25:38.894Z,101373.75
2023-06-23T10:28:11.172Z,101391.63
2023-06-23T10:30:42.108Z,101396.66
2023-06-23T10:33:29.235Z,101394.72
2023-06-23T10:36:01.467Z,101400.84
2023-06-23T10:38:32.936Z,101396.41
2023-06-23T10:41:02.545Z,101399.78
2023-06-23T10:43:35.317Z,101405.47
2023-06-23T10:46:05.745Z,101422.75
2023-06-23T10:48:34.651Z,101415.34
2023-06-23T10:51:29.093Z,101422.66
2023-06-23T10:54:11.929Z,101408.88
2023-06-23T10:56:43.023Z,101431.41
2023-06-23T10:59:22.433Z,101430.31
2023-06-23T11:02:13.071Z,101417.63
2023-06-23T11:04:56.697Z,101430.63
2023-06-23T11:07:25.564Z,101431.69
2023-06-23T11:10:07.711Z,101433.13
2023-06-23T11:12:43.067Z,101442.19
2023-06-23T11:15:17.243Z,101447.69
2023-06-23T11:17:48.007Z,101441.59
2023-06-23T11:20:30.800Z,101452.06
2023-06-23T11:23:01.919Z,101449.34
2023-06-23T11:25:31.803Z,101457.56
2023-06-23T11:28:35.988Z,101463.81
2023-06-23T11:31:14.546Z,101465.00
2023-06-23T11:33:47.376Z,101477.66
2023-06-23T11:36:19.079Z,101462.41
2023-06-23T11:38:47.666Z,101473.16
2023-06-23T11:41:17.319Z,101474.97
2023-06-23T11:43:46.673Z,101474.00
2023-06-23T11:46:16.207Z,101485.13
2023-06-23T11:48:47.613Z,101484.44
2023-06-23T11:51:16.478Z,101485.75
2023-06-23T11:53:44.514Z,101489.06
2023-06-23T11:56:16.995Z,101494.13
2023-06-23T11:58:50.815Z,101489.59
2023-06-23T12:01:19.601Z,101498.44
2023-06-23T12:03:49.964Z,101496.94
2023-06-23T12:06:18.797Z,101501.13
2023-06-23T12:08:50.868Z,101501.13
2023-06-23T12:11:20.056Z,101504.69
2023-06-23T12:13:48.861Z,101507.44
2023-06-23T12:16:16.825Z,101509.94
2023-06-23T12:18:45.620Z,101509.69
2023-06-23T12:21:16.605Z,101512.44
2023-06-23T12:23:45.636Z,101516.03
2023-06-23T12:26:13.584Z,101520.22
2023-06-23T12:28:41.649Z,101514.88
2023-06-23T12:31:09.984Z,101521.19
2023-06-23T12:33:41.064Z,101516.31
2023-06-23T12:36:18.062Z,101520.00
2023-06-23T12:38:54.935Z,101522.28
2023-06-23T12:41:28.901Z,101522.41
2023-06-23T12:44:01.520Z,101523.75
2023-06-23T12:46:32.140Z,101527.44
2023-06-23T12:49:00.245Z,101525.94
2023-06-23T12:51:35.887Z,101522.22
2023-06-23T12:54:04.556Z,101521.75
2023-06-23T12:56:32.868Z,101516.72
2023-06-23T12:59:00.746Z,101517.34
2023-06-23T13:01:30.848Z,101521.84
2023-06-23T13:03:58.942Z,101525.59
2023-06-23T13:06:27.090Z,101523.19
2023-06-23T13:08:58.550Z,101522.09
2023-06-23T13:11:28.358Z,101519.97
2023-06-23T13:13:56.667Z,101533.94
2023-06-23T13:16:24.652Z,101532.63
2023-06-23T13:18:52.564Z,101529.56
2023-06-23T13:21:20.302Z,101534.44
2023-06-23T13:23:48.384Z,101529.41
2023-06-23T13:26:17.848Z,101535.03
2023-06-23T13:28:45.732Z,101536.09
2023-06-23T13:31:14.276Z,101539.69
2023-06-23T13:33:42.536Z,101542.66
2023-06-23T13:36:10.937Z,101538.47
2023-06-23T13:38:38.825Z,101533.19
2023-06-23T13:41:06.673Z,101534.34
2023-06-23T13:43:38.021Z,101528.81
2023-06-23T13:46:07.639Z,101531.56
2023-06-23T13:48:35.501Z,101540.28
2023-06-23T13:51:03.585Z,101538.75
2023-06-23T13:53:31.457Z,101539.56
2023-06-23T13:55:59.478Z,101537.41
2023-06-23T13:58:27.548Z,101540.34
2023-06-23T14:00:57.030Z,101531.63
2023-06-23T14:03:24.932Z,101545.38
2023-06-23T14:05:55.790Z,101544.66
2023-06-23T14:08:23.957Z,101542.28
2023-06-23T14:10:52.048Z,101542.72
2023-06-23T14:13:19.980Z,101545.41
2023-06-23T14:15:48.059Z,101547.50
2023-06-23T14:18:17.461Z,101542.44
2023-06-23T14:20:46.296Z,101542.94
2023-06-23T14:23:14.274Z,101544.41
2023-06-23T14:25:42.030Z,101542.13
2023-06-23T14:28:10.033Z,101551.47
2023-06-23T14:30:38.659Z,101551.00
2023-06-23T14:33:07.642Z,101550.81
2023-06-23T14:35:37.049Z,101550.97
2023-06-23T14:38:06.698Z,101543.31
2023-06-23T14:40:34.773Z,101545.47
2023-06-23T14:43:03.293Z,101542.03
2023-06-23T14:45:36.424Z,101538.88
2023-06-23T14:48:04.882Z,101544.84
2023-06-23T14:50:32.870Z,101547.34
2023-06-23T14:53:02.453Z,101545.66
2023-06-23T14:55:34.124Z,101552.00
2023-06-23T14:58:04.380Z,101559.03
2023-06-23T15:00:32.653Z,101552.28
2023-06-23T15:03:00.813Z,101552.34
2023-06-23T15:05:30.073Z,101552.84
2023-06-23T15:07:58.207Z,101554.41
2023-06-23T15:10:27.873Z,101545.53
2023-06-23T15:12:55.588Z,101556.63
2023-06-23T15:15:23.383Z,101541.94
2023-06-23T15:17:51.287Z,101556.06
2023-06-23T15:20:19.419Z,101561.94
2023-06-23T15:22:47.804Z,101548.53
2023-06-23T15:25:15.698Z,101549.19
2023-06-23T15:27:45.612Z,101552.13
2023-06-23T15:30:13.908Z,101556.16
2023-06-23T15:32:42.002Z,101558.00
2023-06-23T15:35:10.901Z,101556.84
2023-06-23T15:37:40.603Z,101563.50
2023-06-23T15:40:12.619Z,101552.22
2023-06-23T15:42:44.683Z,101561.59
2023-06-23T15:45:13.284Z,101547.22
2023-06-23T15:47:41.202Z,101553.06
2023-06-23T15:50:09.641Z,101542.88
2023-06-23T15:52:37.589Z,101541.28
2023-06-23T15:55:07.655Z,101544.78
2023-06-23T15:57:35.407Z,101544.03
2023-06-23T16:00:06.362Z,101539.16
2023-06-23T16:02:34.241Z,101539.94
2023-06-23T16:05:02.770Z,101552.47
2023-06-23T16:07:30.807Z,101553.06
2023-06-23T16:10:02.705Z,101549.97
2023-06-23T16:12:30.461Z,101546.94
2023-06-23T16:15:00.696Z,101541.09
2023-06-23T16:17:30.194Z,101547.94
2023-06-23T16:19:58.072Z,101535.72
2023-06-23T16:22:25.923Z,101550.88
2023-06-23T16:24:53.698Z,101549.47
2023-06-23T16:27:21.592Z,101557.91
2023-06-23T16:29:49.474Z,101548.44
2023-06-23T16:32:17.566Z,101556.91
2023-06-23T16:34:47.125Z,101557.44
2023-06-23T16:37:15.050Z,101549.91
2023-06-23T16:39:43.647Z,101552.44
2023-06-23T16:42:11.671Z,101549.34
2023-06-23T16:44:41.900Z,101555.69
2023-06-23T16:47:10.533Z,101550.16
2023-06-23T16:49:38.491Z,101555.69
2023-06-23T16:52:09.541Z,101550.69
2023-06-23T16:54:38.969Z,101554.25
2023-06-23T16:57:09.899Z,101546.50
2023-06-23T16:59:38.554Z,101551.75
2023-06-23T17:02:07.682Z,101553.44
2023-06-23T17:04:37.965Z,101557.63
2023-06-23T17:07:07.888Z,101561.44
2023-06-23T17:09:35.981Z,101556.19
2023-06-23T17:12:17.867Z,101552.84
2023-06-23T17:14:47.623Z,101551.19
2023-06-23T17:17:15.738Z,101553.38
2023-06-23T17:19:43.843Z,101547.59
2023-06-23T17:22:14.771Z,101554.44
2023-06-23T17:24:43.925Z,101556.38
2023-06-23T17:27:11.662Z,101556.63
2023-06-23T17:29:39.416Z,101553.28
2023-06-23T17:32:09.396Z,101554.13
2023-06-23T17:34:37.221Z,101548.28
2023-06-23T17:37:05.746Z,101562.91
2023-06-23T17:39:35.074Z,101558.25
2023-06-23T17:42:02.906Z,101563.16
2023-06-23T17:44:31.075Z,101559.31
2023-06-23T17:47:01.013Z,101562.91
2023-06-23T17:49:29.960Z,101558.72
2023-06-23T17:51:57.971Z,101556.22
2023-06-23T17:54:25.814Z,101557.91
2023-06-23T17:56:55.321Z,101560.66
2023-06-23T17:59:23.595Z,101553.47
2023-06-23T18:01:51.704Z,101560.91
2023-06-23T18:04:19.676Z,101567.00
2023-06-23T18:06:47.533Z,101549.63
2023-06-23T18:09:15.539Z,101567.00
2023-06-23T18:11:45.083Z,101562.34
2023-06-23T18:14:14.727Z,101559.56
2023-06-23T18:16:43.064Z,101571.69
2023-06-23T18:19:10.959Z,101573.63
2023-06-23T18:21:38.935Z,101569.50
2023-06-23T18:24:08.316Z,101571.69
2023-06-23T18:26:36.250Z,101571.94
2023-06-23T18:29:04.097Z,101576.03
2023-06-23T18:31:33.361Z,101567.50
2023-06-23T18:34:01.601Z,101569.19
2023-06-23T18:36:29.570Z,101570.25
2023-06-23T18:38:57.670Z,101572.19
2023-06-23T18:41:25.744Z,101573.03
2023-06-23T18:43:54.922Z,101575.19
2023-06-23T18:46:24.032Z,101575.44
2023-06-23T18:48:53.946Z,101577.03
2023-06-23T18:51:22.101Z,101584.47
2023-06-23T18:53:50.240Z,101582.53
2023-06-23T18:56:18.239Z,101585.63
2023-06-23T18:58:49.622Z,101585.13
2023-06-23T19:01:17.626Z,101587.06
2023-06-23T19:03:46.240Z,101588.56
2023-06-23T19:06:17.144Z,101593.13
2023-06-23T19:08:44.930Z,101588.06
2023-06-23T19:11:12.678Z,101583.06
2023-06-23T19:13:40.661Z,101589.91
2023-06-23T19:16:08.398Z,101593.38
2023-06-23T19:18:36.334Z,101593.59
2023-06-23T19:21:04.678Z,101602.63
2023-06-23T19:23:33.846Z,101607.44
2023-06-23T19:26:01.643Z,101617.31
2023-06-23T19:28:29.709Z,101611.44
2023-06-23T19:30:58.683Z,101617.72
2023-06-23T19:33:26.519Z,101621.19
2023-06-23T19:35:54.536Z,101623.00
2023-06-23T19:38:22.338Z,101619.69
2023-06-23T19:40:51.941Z,101624.50
2023-06-23T19:43:22.200Z,101628.81
2023-06-23T19:45:51.172Z,101632.06
2023-06-23T19:48:21.377Z,101636.16
2023-06-23T19:50:49.737Z,101640.47
2023-06-23T19:53:17.570Z,101648.13
2023-06-23T19:55:46.407Z,101652.81
2023-06-23T19:58:19.792Z,101655.91
2023-06-23T20:00:48.204Z,101663.25
2023-06-23T20:03:16.131Z,101669.47
2023-06-23T20:05:44.505Z,101673.56
2023-06-23T20:08:12.538Z,101677.72
2023-06-23T20:10:40.602Z,101683.91
2023-06-23T20:13:09.694Z,101686.09
2023-06-23T20:15:38.958Z,101686.31
2023-06-23T20:18:07.129Z,101679.63
2023-06-23T20:20:35.600Z,101678.78
2023-06-23T20:23:05.713Z,101684.78
2023-06-23T20:25:33.675Z,101680.59
2023-06-23T20:28:01.561Z,101674.84
2023-06-23T20:30:30.161Z,101679.28
2023-06-23T20:32:59.379Z,101686.56
2023-06-23T20:35:27.529Z,101686.44
2023-06-23T20:37:55.675Z,101701.50
2023-06-23T20:40:23.616Z,101699.84
2023-06-23T20:42:52.859Z,101702.25
2023-06-23T20:45:21.415Z,101697.44
2023-06-23T20:47:51.430Z,101699.72
2023-06-23T20:50:21.110Z,101697.94
2023-06-23T20:52:49.230Z,101693.16
2023-06-23T20:55:18.839Z,101693.50
2023-06-23T20:57:46.718Z,101709.75
2023-06-23T21:00:15.482Z,101710.13
2023-06-23T21:02:43.369Z,101705.81
2023-06-23T21:05:11.239Z,101712.63
2023-06-23T21:07:40.704Z,101708.91
2023-06-23T21:10:23.669Z,101715.97
2023-06-23T21:12:56.382Z,101712.16
2023-06-23T21:15:25.893Z,101715.97
2023-06-23T21:17:54.577Z,101720.28
2023-06-23T21:20:26.479Z,101726.69
2023-06-23T21:22:56.702Z,101726.69
2023-06-23T21:25:24.487Z,101725.22
2023-06-23T21:27:52.308Z,101727.84
2023-06-23T21:30:20.113Z,101732.75
2023-06-23T21:32:48.200Z,101732.13
2023-06-23T21:35:16.121Z,101736.63
2023-06-23T21:37:46.115Z,101734.72
2023-06-23T21:40:18.728Z,101729.00
2023-06-23T21:42:47.139Z,101731.75
2023-06-23T21:45:15.163Z,101741.31
2023-06-23T21:47:42.952Z,101744.41
2023-06-23T21:50:13.696Z,101739.31
2023-06-23T21:52:42.017Z,101747.31
2023-06-23T21:55:11.429Z,101755.03
2023-06-23T21:57:41.852Z,101760.16
2023-06-23T22:00:11.213Z,101770.16
2023-06-23T22:02:39.304Z,101768.34
2023-06-23T22:05:07.120Z,101770.03
2023-06-23T22:07:35.054Z,101765.97
2023-06-23T22:10:03.117Z,101767.50
2023-06-23T22:12:32.732Z,101769.63
2023-06-23T22:15:01.968Z,101772.16
2023-06-23T22:17:31.013Z,101774.91
2023-06-23T22:19:59.737Z,101773.94
2023-06-23T22:22:29.765Z,101773.94
2023-06-23T22:24:57.898Z,101777.72
2023-06-23T22:27:29.774Z,101773.63
2023-06-23T22:29:58.262Z,101770.28
2023-06-23T22:32:27.867Z,101766.44
2023-06-23T22:34:57.217Z,101773.25
2023-06-23T22:37:24.980Z,101774.09
2023-06-23T22:39:52.732Z,101775.00
2023-06-23T22:42:20.748Z,101771.66
2023-06-23T22:44:49.350Z,101774.19
2023-06-23T22:47:20.574Z,101777.59
2023-06-23T22:49:50.029Z,101773.88
2023-06-23T22:52:17.951Z,101766.69
2023-06-23T22:54:45.994Z,101774.34
2023-06-23T22:57:14.205Z,101768.47
2023-06-23T22:59:42.093Z,101766.31
2023-06-23T23:02:10.087Z,101759.28
2023-06-23T23:04:37.890Z,101776.00
2023-06-23T23:07:09.089Z,101769.91
2023-06-23T23:09:37.968Z,101773.09
2023-06-23T23:12:06.618Z,101780.13
2023-06-23T23:14:34.896Z,101779.97
2023-06-23T23:17:03.938Z,101786.53
2023-06-23T23:19:32.244Z,101790.34
2023-06-23T23:22:00.536Z,101802.38
2023-06-23T23:24:29.687Z,101787.22
2023-06-23T23:27:00.541Z,101783.41
2023-06-23T23:29:28.809Z,101782.84
2023-06-23T23:31:58.470Z,101780.72
2023-06-23T23:34:32.997Z,101778.38
2023-06-23T23:37:01.344Z,101773.09
2023-06-23T23:39:30.847Z,101782.41
2023-06-23T23:41:59.141Z,101784.53
2023-06-23T23:44:27.506Z,101779.75
2023-06-23T23:46:55.703Z,101782.25
2023-06-23T23:49:27.586Z,101780.09
2023-06-23T23:51:57.537Z,101779.91
2023-06-23T23:54:25.436Z,101779.75
2023-06-23T23:56:55.106Z,101766.19
2023-06-23T23:59:23.232Z,101775.59
